createdAt,value
2018-06-15T00:00:08.139Z,26.00
2018-06-15T00:02:36.706Z,24.40
2018-06-15T00:05:05.187Z,25.10
2018-06-15T00:07:33.261Z,23.70
2018-06-15T00:10:01.731Z,24.07
2018-06-15T00:12:29.794Z,23.03
2018-06-15T00:14:57.893Z,23.03
2018-06-15T00:17:26.837Z,24.40
2018-06-15T00:19:54.881Z,24.57
2018-06-15T00:22:22.937Z,23.70
2018-06-15T00:24:51.028Z,24.70
2018-06-15T00:27:19.096Z,23.97
2018-06-15T00:29:47.166Z,24.00
2018-06-15T00:32:15.208Z,22.77
2018-06-15T00:34:43.311Z,24.13
2018-06-15T00:37:11.377Z,23.33
2018-06-15T00:39:39.448Z,24.53
2018-06-15T00:42:07.521Z,22.13
2018-06-15T00:44:35.637Z,23.33
2018-06-15T00:47:03.491Z,24.57
2018-06-15T00:49:31.534Z,23.00
2018-06-15T00:51:59.603Z,25.07
2018-06-15T00:54:27.647Z,22.53
2018-06-15T00:57:07.041Z,22.80
2018-06-15T00:59:35.110Z,25.47
2018-06-15T01:02:03.198Z,24.93
2018-06-15T01:04:31.421Z,27.60
2018-06-15T01:06:59.457Z,27.73
2018-06-15T01:09:27.340Z,30.17
2018-06-15T01:11:55.382Z,30.10
2018-06-15T01:14:23.500Z,32.07
2018-06-15T01:16:51.537Z,30.40
2018-06-15T01:19:19.589Z,30.07
2018-06-15T01:21:47.635Z,29.67
2018-06-15T01:24:15.709Z,28.60
2018-06-15T01:26:43.914Z,31.60
2018-06-15T01:29:11.985Z,27.53
2018-06-15T01:31:40.062Z,27.67
2018-06-15T01:34:08.533Z,26.43
2018-06-15T01:36:36.609Z,25.83
2018-06-15T01:39:06.861Z,27.37
2018-06-15T01:41:35.325Z,27.20
2018-06-15T01:44:03.405Z,22.70
2018-06-15T01:46:31.493Z,26.00
2018-06-15T01:48:59.577Z,24.70
2018-06-15T01:51:27.651Z,24.80
2018-06-15T01:53:55.721Z,25.10
2018-06-15T01:56:23.871Z,24.00
2018-06-15T01:58:51.946Z,23.80
2018-06-15T02:01:20.120Z,22.80
2018-06-15T02:03:48.094Z,23.00
2018-06-15T02:06:16.138Z,24.30
2018-06-15T02:08:44.193Z,23.70
2018-06-15T02:11:12.246Z,23.60
2018-06-15T02:13:40.340Z,24.83
2018-06-15T02:16:08.425Z,25.30
2018-06-15T02:18:36.465Z,24.60
2018-06-15T02:21:04.574Z,23.40
2018-06-15T02:23:32.613Z,25.53
2018-06-15T02:26:01.144Z,23.70
2018-06-15T02:28:29.203Z,24.10
2018-06-15T02:30:57.493Z,23.03
2018-06-15T02:33:25.570Z,24.87
2018-06-15T02:35:53.635Z,22.90
2018-06-15T02:38:21.717Z,26.10
2018-06-15T02:40:49.778Z,25.17
2018-06-15T02:43:17.846Z,24.17
2018-06-15T02:45:45.921Z,23.03
2018-06-15T02:48:14.014Z,24.60
2018-06-15T02:50:42.070Z,25.57
2018-06-15T02:53:10.125Z,24.53
2018-06-15T02:55:38.208Z,23.27
2018-06-15T02:58:06.271Z,25.07
2018-06-15T03:00:34.381Z,25.10
2018-06-15T03:03:02.445Z,27.33
2018-06-15T03:05:30.514Z,26.77
2018-06-15T03:07:58.586Z,27.90
2018-06-15T03:10:26.642Z,28.30
2018-06-15T03:12:54.698Z,27.60
2018-06-15T03:15:22.750Z,28.77
2018-06-15T03:17:50.959Z,28.60
2018-06-15T03:20:19.029Z,28.67
2018-06-15T03:22:47.077Z,27.50
2018-06-15T03:25:15.167Z,29.47
2018-06-15T03:27:43.221Z,30.80
2018-06-15T03:30:11.306Z,29.43
2018-06-15T03:32:39.381Z,31.97
2018-06-15T03:35:07.491Z,30.57
2018-06-15T03:37:35.612Z,30.17
2018-06-15T03:40:04.014Z,32.53
2018-06-15T03:42:32.298Z,31.80
2018-06-15T03:45:00.475Z,32.90
2018-06-15T03:47:28.509Z,32.40
2018-06-15T03:49:56.587Z,30.67
2018-06-15T03:52:24.663Z,31.50
2018-06-15T03:54:52.742Z,29.83
2018-06-15T03:57:20.806Z,29.33
2018-06-15T03:59:48.878Z,29.30
2018-06-15T04:02:17.131Z,29.70
2018-06-15T04:04:45.181Z,29.17
2018-06-15T04:07:13.097Z,28.63
2018-06-15T04:09:41.281Z,29.60
2018-06-15T04:12:09.342Z,28.57
2018-06-15T04:14:37.327Z,29.50
2018-06-15T04:17:05.562Z,28.73
2018-06-15T04:19:33.618Z,27.40
2018-06-15T04:22:01.692Z,27.13
2018-06-15T04:24:30.077Z,26.70
2018-06-15T04:26:58.317Z,27.27
2018-06-15T04:29:26.382Z,25.07
2018-06-15T04:31:54.454Z,25.50
2018-06-15T04:34:22.505Z,25.60
2018-06-15T04:36:50.572Z,24.43
2018-06-15T04:39:18.677Z,23.90
2018-06-15T04:41:46.760Z,23.77
2018-06-15T04:44:14.900Z,22.50
2018-06-15T04:46:42.945Z,23.60
2018-06-15T04:49:11.013Z,21.80
2018-06-15T04:51:38.994Z,21.67
2018-06-15T04:54:07.077Z,19.03
2018-06-15T04:56:35.166Z,18.60
2018-06-15T04:59:03.342Z,18.20
2018-06-15T05:01:31.312Z,17.93
2018-06-15T05:03:59.653Z,19.60
2018-06-15T05:06:27.717Z,17.73
2018-06-15T05:08:55.845Z,18.83
2018-06-15T05:11:23.937Z,15.80
2018-06-15T05:13:51.985Z,16.40
2018-06-15T05:16:20.834Z,18.33
2018-06-15T05:18:48.869Z,16.13
2018-06-15T05:21:17.114Z,14.20
2018-06-15T05:23:45.189Z,16.23
2018-06-15T05:26:13.291Z,14.00
2018-06-15T05:28:42.094Z,12.93
2018-06-15T05:31:10.218Z,13.70
2018-06-15T05:33:38.265Z,11.33
2018-06-15T05:36:06.801Z,12.73
2018-06-15T05:38:34.865Z,11.67
2018-06-15T05:41:02.953Z,12.57
2018-06-15T05:43:31.064Z,9.97
2018-06-15T05:45:59.159Z,30.37
2018-06-15T05:48:27.223Z,9.50
2018-06-15T05:50:55.353Z,10.73
2018-06-15T05:53:23.700Z,8.40
2018-06-15T05:55:51.962Z,10.03
2018-06-15T05:58:21.250Z,9.50
2018-06-15T06:00:49.322Z,7.50
2018-06-15T06:03:19.098Z,10.00
2018-06-15T06:05:47.796Z,9.70
2018-06-15T06:08:17.858Z,9.80
2018-06-15T06:10:46.178Z,6.83
2018-06-15T06:13:14.255Z,7.60
2018-06-15T06:15:42.321Z,7.73
2018-06-15T06:18:10.374Z,6.40
2018-06-15T06:20:38.430Z,6.07
2018-06-15T06:23:06.612Z,6.80
2018-06-15T06:25:34.664Z,5.30
2018-06-15T06:28:03.074Z,6.93
2018-06-15T06:30:31.711Z,5.67
2018-06-15T06:32:59.795Z,5.43
2018-06-15T06:35:27.867Z,5.10
2018-06-15T06:37:55.934Z,5.40
2018-06-15T06:40:24.040Z,5.03
2018-06-15T06:42:52.107Z,6.10
2018-06-15T06:45:20.694Z,6.07
2018-06-15T06:47:48.831Z,6.13
2018-06-15T06:50:16.874Z,6.50
2018-06-15T06:52:44.973Z,6.67
2018-06-15T06:55:13.067Z,3.50
2018-06-15T06:57:41.473Z,3.53
2018-06-15T07:00:09.517Z,3.00
2018-06-15T07:02:37.598Z,4.33
2018-06-15T07:05:05.710Z,4.40
2018-06-15T07:07:33.658Z,4.70
2018-06-15T07:10:01.726Z,3.40
2018-06-15T07:12:29.827Z,4.07
2018-06-15T07:14:58.794Z,3.80
2018-06-15T07:17:26.868Z,4.63
2018-06-15T07:19:54.933Z,5.13
2018-06-15T07:22:23.013Z,4.70
2018-06-15T07:24:51.140Z,5.43
2018-06-15T07:27:19.564Z,5.50
2018-06-15T07:29:47.635Z,5.23
2018-06-15T07:32:15.685Z,5.87
2018-06-15T07:34:43.730Z,7.10
2018-06-15T07:37:11.794Z,4.47
2018-06-15T07:39:39.654Z,4.40
2018-06-15T07:42:07.750Z,4.13
2018-06-15T07:44:35.792Z,3.77
2018-06-15T07:47:03.858Z,3.80
2018-06-15T07:49:31.910Z,3.50
2018-06-15T07:51:59.962Z,4.00
2018-06-15T07:54:28.042Z,3.60
2018-06-15T07:56:56.101Z,2.93
2018-06-15T07:59:24.177Z,3.57
2018-06-15T08:01:52.197Z,4.30
2018-06-15T08:04:20.913Z,4.70
2018-06-15T08:06:49.029Z,4.47
2018-06-15T08:09:17.626Z,3.50
2018-06-15T08:11:45.702Z,3.80
2018-06-15T08:14:13.737Z,4.33
2018-06-15T08:16:41.836Z,3.70
2018-06-15T08:19:09.917Z,4.90
2018-06-15T08:21:37.957Z,3.40
2018-06-15T08:24:06.116Z,3.83
2018-06-15T08:26:34.229Z,3.77
2018-06-15T08:29:02.331Z,3.70
2018-06-15T08:31:30.381Z,3.30
2018-06-15T08:33:58.609Z,3.40
2018-06-15T08:36:26.678Z,4.07
2018-06-15T08:38:54.753Z,3.17
2018-06-15T08:41:22.900Z,3.10
2018-06-15T08:43:50.994Z,3.33
2018-06-15T08:46:19.718Z,4.10
2018-06-15T08:48:47.795Z,3.80
2018-06-15T08:51:16.028Z,4.53
2018-06-15T08:53:44.106Z,2.80
2018-06-15T08:56:12.153Z,3.57
2018-06-15T08:58:40.753Z,2.77
2018-06-15T09:01:08.810Z,3.17
2018-06-15T09:03:37.017Z,5.40
2018-06-15T09:06:05.104Z,4.60
2018-06-15T09:08:33.153Z,3.20
2018-06-15T09:11:01.281Z,3.00
2018-06-15T09:13:29.318Z,2.80
2018-06-15T09:15:57.390Z,2.77
2018-06-15T09:18:25.446Z,3.50
2018-06-15T09:20:53.913Z,3.90
2018-06-15T09:23:21.953Z,4.60
2018-06-15T09:25:50.845Z,3.33
2018-06-15T09:28:18.918Z,3.43
2018-06-15T09:30:46.960Z,3.83
2018-06-15T09:33:15.029Z,3.60
2018-06-15T09:35:43.085Z,4.30
2018-06-15T09:38:11.158Z,5.20
2018-06-15T09:40:39.215Z,3.27
2018-06-15T09:43:07.397Z,2.40
2018-06-15T09:45:35.726Z,4.53
2018-06-15T09:48:03.911Z,2.93
2018-06-15T09:50:31.993Z,3.30
2018-06-15T09:52:59.875Z,4.50
2018-06-15T09:55:27.889Z,3.97
2018-06-15T09:57:55.958Z,3.83
2018-06-15T10:00:29.501Z,3.13
2018-06-15T10:02:57.637Z,2.90
2018-06-15T10:05:25.885Z,3.20
2018-06-15T10:07:53.968Z,2.90
2018-06-15T10:10:22.030Z,3.40
2018-06-15T10:12:50.095Z,2.60
2018-06-15T10:15:18.132Z,3.87
2018-06-15T10:17:46.173Z,3.20
2018-06-15T10:20:14.328Z,3.30
2018-06-15T10:22:42.395Z,3.50
2018-06-15T10:25:10.446Z,3.33
2018-06-15T10:27:38.507Z,3.57
2018-06-15T10:30:06.579Z,3.40
2018-06-15T10:32:34.642Z,3.33
2018-06-15T10:35:02.722Z,3.90
2018-06-15T10:37:30.761Z,2.90
2018-06-15T10:39:58.818Z,3.20
2018-06-15T10:42:26.868Z,3.33
2018-06-15T10:44:54.914Z,3.00
2018-06-15T10:47:22.973Z,2.70
2018-06-15T10:49:51.040Z,3.13
2018-06-15T10:52:19.778Z,3.70
2018-06-15T10:54:48.006Z,3.00
2018-06-15T10:57:16.102Z,3.73
2018-06-15T10:59:44.303Z,2.90
2018-06-15T11:02:12.354Z,3.00
2018-06-15T11:04:41.069Z,3.07
2018-06-15T11:07:09.125Z,3.67
2018-06-15T11:09:37.249Z,2.90
2018-06-15T11:12:05.321Z,2.83
2018-06-15T11:14:33.408Z,3.10
2018-06-15T11:17:02.316Z,3.20
2018-06-15T11:19:30.413Z,3.30
2018-06-15T11:21:58.505Z,3.37
2018-06-15T11:24:26.573Z,2.80
2018-06-15T11:26:55.318Z,2.70
2018-06-15T11:29:23.390Z,3.60
2018-06-15T11:31:51.427Z,2.50
2018-06-15T11:34:19.478Z,3.67
2018-06-15T11:36:47.547Z,2.93
2018-06-15T11:39:15.600Z,3.73
2018-06-15T11:41:43.655Z,2.60
2018-06-15T11:44:11.719Z,2.70
2018-06-15T11:46:39.765Z,3.20
2018-06-15T11:49:07.822Z,6.30
2018-06-15T11:51:35.873Z,2.77
2018-06-15T11:54:03.945Z,2.63
2018-06-15T11:56:31.977Z,3.10
2018-06-15T11:59:00.202Z,3.50
2018-06-15T12:01:28.282Z,3.67
2018-06-15T12:03:56.349Z,2.93
2018-06-15T12:06:24.405Z,4.77
2018-06-15T12:08:52.446Z,5.13
2018-06-15T12:11:20.510Z,3.20
2018-06-15T12:13:48.593Z,2.27
2018-06-15T12:16:16.658Z,3.00
2018-06-15T12:18:44.719Z,2.63
2018-06-15T12:21:12.834Z,3.40
2018-06-15T12:23:40.893Z,3.33
2018-06-15T12:26:08.951Z,4.03
2018-06-15T12:28:37.054Z,3.03
2018-06-15T12:31:05.102Z,3.30
2018-06-15T12:33:33.154Z,2.77
2018-06-15T12:36:01.221Z,3.37
2018-06-15T12:38:29.440Z,3.10
2018-06-15T12:40:57.498Z,2.83
2018-06-15T12:43:25.592Z,2.90
2018-06-15T12:45:53.727Z,3.53
2018-06-15T12:48:21.709Z,3.33
2018-06-15T12:50:49.973Z,2.80
2018-06-15T12:53:18.035Z,3.67
2018-06-15T12:55:46.245Z,2.63
2018-06-15T12:58:14.147Z,3.10
2018-06-15T13:00:42.215Z,3.13
2018-06-15T13:03:10.278Z,3.80
2018-06-15T13:05:38.169Z,3.60
2018-06-15T13:08:06.443Z,2.80
2018-06-15T13:10:34.481Z,3.63
2018-06-15T13:13:02.532Z,3.70
2018-06-15T13:15:30.653Z,2.93
2018-06-15T13:17:58.736Z,2.57
2018-06-15T13:20:26.848Z,2.60
2018-06-15T13:22:54.917Z,3.23
2018-06-15T13:25:23.047Z,3.03
2018-06-15T13:27:51.313Z,2.87
2018-06-15T13:30:19.428Z,3.00
2018-06-15T13:32:47.492Z,2.00
2018-06-15T13:35:15.653Z,2.90
2018-06-15T13:37:43.837Z,2.20
2018-06-15T13:40:12.009Z,2.20
2018-06-15T13:42:40.090Z,2.40
2018-06-15T13:45:08.121Z,2.53
2018-06-15T13:47:36.175Z,2.67
2018-06-15T13:50:04.825Z,2.13
2018-06-15T13:52:32.917Z,2.37
2018-06-15T13:55:01.490Z,2.97
2018-06-15T13:57:29.584Z,2.07
2018-06-15T13:59:57.606Z,2.97
2018-06-15T14:02:26.105Z,2.70
2018-06-15T14:04:54.163Z,8.13
2018-06-15T14:07:22.224Z,2.97
2018-06-15T14:09:50.273Z,2.57
2018-06-15T14:12:18.354Z,2.80
2018-06-15T14:14:46.409Z,3.23
2018-06-15T14:17:14.462Z,2.43
2018-06-15T14:19:42.530Z,2.17
2018-06-15T14:22:10.605Z,2.80
2018-06-15T14:24:38.692Z,3.03
2018-06-15T14:27:06.746Z,3.83
2018-06-15T14:29:35.110Z,2.90
2018-06-15T14:32:03.237Z,3.73
2018-06-15T14:34:31.269Z,2.97
2018-06-15T14:36:59.367Z,2.53
2018-06-15T14:39:27.413Z,3.03
2018-06-15T14:41:55.464Z,3.70
2018-06-15T14:44:23.525Z,3.20
2018-06-15T14:46:51.612Z,3.57
2018-06-15T14:49:19.631Z,2.70
2018-06-15T14:51:47.493Z,2.90
2018-06-15T14:54:15.390Z,2.67
2018-06-15T14:56:43.633Z,2.73
2018-06-15T14:59:11.782Z,2.27
2018-06-15T15:01:39.825Z,2.47
2018-06-15T15:04:07.917Z,3.00
2018-06-15T15:06:36.029Z,2.23
2018-06-15T15:09:06.378Z,2.43
2018-06-15T15:11:34.423Z,2.63
2018-06-15T15:14:02.686Z,3.30
2018-06-15T15:16:30.785Z,1.97
2018-06-15T15:18:58.838Z,3.43
2018-06-15T15:21:26.905Z,3.03
2018-06-15T15:23:54.969Z,2.17
2018-06-15T15:26:23.045Z,2.50
2018-06-15T15:28:51.109Z,2.00
2018-06-15T15:31:19.685Z,2.10
2018-06-15T15:33:47.752Z,2.80
2018-06-15T15:36:15.801Z,2.50
2018-06-15T15:38:43.988Z,2.63
2018-06-15T15:41:11.858Z,2.30
2018-06-15T15:43:39.953Z,2.40
2018-06-15T15:46:08.014Z,2.20
2018-06-15T15:48:36.078Z,3.00
2018-06-15T15:51:04.134Z,2.40
2018-06-15T15:53:32.209Z,2.70
2018-06-15T15:56:01.210Z,2.63
2018-06-15T15:58:29.807Z,2.73
2018-06-15T16:00:57.878Z,2.80
2018-06-15T16:03:25.929Z,2.73
2018-06-15T16:05:54.081Z,2.97
2018-06-15T16:08:22.156Z,4.30
2018-06-15T16:10:50.265Z,2.33
2018-06-15T16:13:18.328Z,2.37
2018-06-15T16:15:46.377Z,2.33
2018-06-15T16:18:14.450Z,2.43
2018-06-15T16:20:42.519Z,3.10
2018-06-15T16:23:10.581Z,2.87
2018-06-15T16:25:38.661Z,2.93
2018-06-15T16:28:06.754Z,4.00
2018-06-15T16:30:34.677Z,3.97
2018-06-15T16:33:02.758Z,2.80
2018-06-15T16:35:30.826Z,3.90
2018-06-15T16:37:58.864Z,4.10
2018-06-15T16:40:26.935Z,6.70
2018-06-15T16:42:54.990Z,3.17
2018-06-15T16:45:23.050Z,2.90
2018-06-15T16:47:51.186Z,2.80
2018-06-15T16:50:19.265Z,3.47
2018-06-15T16:52:47.350Z,2.67
2018-06-15T16:55:15.464Z,2.90
2018-06-15T16:57:43.520Z,2.90
2018-06-15T17:00:11.574Z,3.57
2018-06-15T17:02:39.632Z,2.20
2018-06-15T17:05:07.703Z,3.03
2018-06-15T17:07:35.755Z,2.50
2018-06-15T17:10:03.867Z,2.43
2018-06-15T17:12:31.931Z,2.10
2018-06-15T17:15:00.001Z,2.60
2018-06-15T17:17:28.098Z,2.77
2018-06-15T17:19:56.154Z,2.63
2018-06-15T17:22:24.218Z,3.07
2018-06-15T17:24:52.305Z,12.37
2018-06-15T17:27:20.349Z,4.07
2018-06-15T17:29:48.432Z,4.10
2018-06-15T17:32:16.486Z,2.90
2018-06-15T17:34:44.543Z,3.07
2018-06-15T17:37:12.596Z,7.50
2018-06-15T17:39:40.661Z,3.30
2018-06-15T17:42:08.707Z,4.07
2018-06-15T17:44:36.777Z,3.00
2018-06-15T17:47:04.978Z,2.83
2018-06-15T17:49:33.126Z,3.67
2018-06-15T17:52:01.184Z,4.07
2018-06-15T17:54:29.254Z,3.30
2018-06-15T17:56:57.183Z,2.90
2018-06-15T17:59:25.500Z,2.93
2018-06-15T18:01:53.530Z,3.50
2018-06-15T18:04:21.618Z,7.30
2018-06-15T18:06:49.714Z,3.00
2018-06-15T18:09:17.798Z,3.93
2018-06-15T18:11:45.797Z,3.60
2018-06-15T18:14:13.900Z,4.20
2018-06-15T18:16:42.133Z,3.77
2018-06-15T18:19:10.194Z,4.43
2018-06-15T18:21:38.273Z,3.40
2018-06-15T18:24:06.333Z,3.30
2018-06-15T18:26:34.396Z,2.80
2018-06-15T18:29:02.470Z,3.63
2018-06-15T18:31:31.331Z,3.80
2018-06-15T18:33:59.877Z,3.27
2018-06-15T18:36:27.933Z,3.57
2018-06-15T18:38:56.074Z,4.27
2018-06-15T18:41:24.138Z,3.23
2018-06-15T18:43:53.016Z,2.50
2018-06-15T18:46:21.073Z,3.40
2018-06-15T18:48:49.213Z,3.43
2018-06-15T18:51:17.292Z,3.13
2018-06-15T18:53:45.361Z,3.23
2018-06-15T18:56:13.429Z,3.27
2018-06-15T18:58:41.514Z,2.80
2018-06-15T19:01:09.565Z,3.83
2018-06-15T19:03:37.613Z,3.13
2018-06-15T19:06:05.675Z,2.57
2018-06-15T19:08:33.729Z,3.10
2018-06-15T19:11:01.793Z,3.10
2018-06-15T19:13:29.854Z,3.37
2018-06-15T19:15:57.893Z,2.80
2018-06-15T19:18:25.948Z,3.23
2018-06-15T19:20:54.026Z,3.87
2018-06-15T19:23:22.275Z,3.23
2018-06-15T19:25:50.320Z,3.37
2018-06-15T19:28:18.411Z,2.90
2018-06-15T19:30:46.473Z,2.90
2018-06-15T19:33:14.552Z,2.27
2018-06-15T19:35:42.423Z,3.57
2018-06-15T19:38:10.497Z,2.73
2018-06-15T19:40:38.565Z,3.07
2018-06-15T19:43:06.623Z,2.93
2018-06-15T19:45:34.718Z,3.30
2018-06-15T19:48:02.777Z,19.47
2018-06-15T19:50:30.853Z,10.53
2018-06-15T19:52:58.930Z,6.40
2018-06-15T19:55:27.198Z,3.13
2018-06-15T19:57:55.265Z,2.40
2018-06-15T20:00:24.018Z,4.43
2018-06-15T20:02:51.881Z,2.63
2018-06-15T20:05:19.996Z,2.73
2018-06-15T20:07:48.063Z,2.37
2018-06-15T20:10:16.134Z,2.90
2018-06-15T20:12:44.237Z,3.80
2018-06-15T20:15:12.302Z,3.13
2018-06-15T20:17:40.451Z,3.20
2018-06-15T20:20:08.533Z,2.77
2018-06-15T20:22:36.591Z,2.70
2018-06-15T20:25:04.674Z,2.23
2018-06-15T20:27:32.917Z,3.00
2018-06-15T20:30:01.519Z,3.00
2018-06-15T20:32:29.569Z,3.00
2018-06-15T20:34:57.651Z,2.97
2018-06-15T20:37:25.755Z,2.80
2018-06-15T20:39:53.812Z,2.77
2018-06-15T20:42:21.868Z,3.10
2018-06-15T20:44:49.948Z,3.53
2018-06-15T20:47:18.015Z,3.40
2018-06-15T20:49:46.079Z,2.20
2018-06-15T20:52:14.175Z,2.40
2018-06-15T20:54:42.280Z,2.60
2018-06-15T20:57:10.358Z,2.97
2018-06-15T20:59:38.414Z,2.53
2018-06-15T21:02:06.517Z,2.43
2018-06-15T21:04:34.601Z,3.03
2018-06-15T21:07:02.684Z,3.53
2018-06-15T21:09:30.751Z,2.23
2018-06-15T21:11:58.799Z,2.93
2018-06-15T21:14:26.825Z,2.97
2018-06-15T21:16:54.910Z,2.40
2018-06-15T21:19:22.977Z,3.00
2018-06-15T21:21:51.058Z,2.83
2018-06-15T21:24:19.104Z,2.70
2018-06-15T21:26:47.185Z,2.77
2018-06-15T21:29:15.246Z,3.10
2018-06-15T21:31:43.354Z,3.30
2018-06-15T21:34:11.406Z,2.80
2018-06-15T21:36:39.509Z,2.60
2018-06-15T21:39:08.605Z,27.27
2018-06-15T21:41:36.448Z,4.10
2018-06-15T21:44:04.513Z,3.07
2018-06-15T21:46:32.564Z,2.60
2018-06-15T21:49:00.777Z,2.20
2018-06-15T21:51:28.854Z,2.90
2018-06-15T21:53:56.923Z,2.73
2018-06-15T21:56:25.387Z,2.60
2018-06-15T21:58:53.682Z,2.57
2018-06-15T22:01:24.384Z,2.50
2018-06-15T22:03:52.482Z,3.00
2018-06-15T22:06:20.606Z,2.93
2018-06-15T22:08:48.653Z,2.43
2018-06-15T22:11:16.757Z,3.43
2018-06-15T22:13:44.861Z,2.70
2018-06-15T22:16:12.974Z,2.37
2018-06-15T22:18:41.225Z,2.90
2018-06-15T22:21:09.109Z,3.27
2018-06-15T22:23:37.185Z,2.80
2018-06-15T22:26:05.267Z,3.13
2018-06-15T22:28:33.259Z,2.70
2018-06-15T22:31:01.345Z,3.40
2018-06-15T22:33:29.440Z,3.30
2018-06-15T22:35:57.460Z,3.00
2018-06-15T22:38:25.532Z,3.37
2018-06-15T22:40:53.625Z,2.90
2018-06-15T22:43:21.886Z,2.73
2018-06-15T22:45:49.964Z,3.13
2018-06-15T22:48:18.037Z,2.83
2018-06-15T22:50:46.371Z,2.70
2018-06-15T22:53:14.470Z,2.40
2018-06-15T22:55:42.512Z,2.60
2018-06-15T22:58:10.581Z,2.57
2018-06-15T23:00:38.654Z,2.67
2018-06-15T23:03:06.706Z,2.50
2018-06-15T23:05:34.973Z,2.33
2018-06-15T23:08:03.026Z,3.33
2018-06-15T23:10:31.077Z,2.60
2018-06-15T23:12:59.165Z,3.07
2018-06-15T23:15:27.249Z,2.70
2018-06-15T23:17:55.313Z,2.83
2018-06-15T23:20:23.173Z,2.20
2018-06-15T23:22:51.241Z,2.63
2018-06-15T23:25:19.320Z,2.90
2018-06-15T23:27:47.381Z,2.37
2018-06-15T23:30:15.430Z,2.87
2018-06-15T23:32:43.511Z,2.50
2018-06-15T23:35:11.558Z,2.40
2018-06-15T23:37:39.629Z,2.70
2018-06-15T23:40:07.666Z,2.67
2018-06-15T23:42:35.741Z,2.27
2018-06-15T23:45:03.790Z,2.40
2018-06-15T23:47:31.841Z,2.43
2018-06-15T23:49:59.908Z,2.53
2018-06-15T23:52:27.756Z,2.20
2018-06-15T23:54:55.831Z,2.50
2018-06-15T23:57:23.905Z,3.03
2018-06-15T23:59:51.964Z,2.77
